sensor_id;sensor_type;location;lat;lon;timestamp;temperature;humidity
15937;DHT22;9163;48.818;8.976;2022-11-24T00:01:07;6.40;99.90
15937;DHT22;9163;48.818;8.976;2022-11-24T00:03:36;6.30;99.90
15937;DHT22;9163;48.818;8.976;2022-11-24T00:06:04;6.20;99.90
15937;DHT22;9163;48.818;8.976;2022-11-24T00:08:32;6.10;99.90
15937;DHT22;9163;48.818;8.976;2022-11-24T00:11:03;5.90;99.90
15937;DHT22;9163;48.818;8.976;2022-11-24T00:13:32;5.80;99.90
15937;DHT22;9163;48.818;8.976;2022-11-24T00:16:10;5.70;99.90
15937;DHT22;9163;48.818;8.976;2022-11-24T00:18:39;5.70;99.90
15937;DHT22;9163;48.818;8.976;2022-11-24T00:21:07;5.70;99.90
15937;DHT22;9163;48.818;8.976;2022-11-24T00:23:34;5.70;99.90
15937;DHT22;9163;48.818;8.976;2022-11-24T00:26:06;5.60;99.90
15937;DHT22;9163;48.818;8.976;2022-11-24T00:28:34;5.60;99.90
15937;DHT22;9163;48.818;8.976;2022-11-24T00:31:03;5.70;99.90
15937;DHT22;9163;48.818;8.976;2022-11-24T00:33:32;6.00;99.90
15937;DHT22;9163;48.818;8.976;2022-11-24T00:36:00;6.20;99.90
15937;DHT22;9163;48.818;8.976;2022-11-24T00:38:28;6.40;99.90
15937;DHT22;9163;48.818;8.976;2022-11-24T00:40:55;6.50;99.90
15937;DHT22;9163;48.818;8.976;2022-11-24T00:43:22;6.60;99.90
15937;DHT22;9163;48.818;8.976;2022-11-24T00:45:49;6.70;99.90
15937;DHT22;9163;48.818;8.976;2022-11-24T00:48:17;6.70;99.90
15937;DHT22;9163;48.818;8.976;2022-11-24T00:50:45;6.70;99.90
15937;DHT22;9163;48.818;8.976;2022-11-24T00:53:22;6.70;99.90
15937;DHT22;9163;48.818;8.976;2022-11-24T00:55:49;6.70;99.90
15937;DHT22;9163;48.818;8.976;2022-11-24T00:58:16;6.70;99.90
15937;DHT22;9163;48.818;8.976;2022-11-24T01:00:44;6.70;99.90
15937;DHT22;9163;48.818;8.976;2022-11-24T01:03:11;6.70;99.90
15937;DHT22;9163;48.818;8.976;2022-11-24T01:05:40;6.70;99.90
15937;DHT22;9163;48.818;8.976;2022-11-24T01:08:08;6.70;99.90
15937;DHT22;9163;48.818;8.976;2022-11-24T01:10:37;6.70;99.90
15937;DHT22;9163;48.818;8.976;2022-11-24T01:13:04;6.60;99.90
15937;DHT22;9163;48.818;8.976;2022-11-24T01:15:34;6.60;99.90
15937;DHT22;9163;48.818;8.976;2022-11-24T01:18:01;6.60;99.90
15937;DHT22;9163;48.818;8.976;2022-11-24T01:20:29;6.60;99.90
15937;DHT22;9163;48.818;8.976;2022-11-24T01:22:57;6.50;99.90
15937;DHT22;9163;48.818;8.976;2022-11-24T01:25:24;6.50;99.90
15937;DHT22;9163;48.818;8.976;2022-11-24T01:27:53;6.50;99.90
15937;DHT22;9163;48.818;8.976;2022-11-24T01:30:20;6.50;99.90
15937;DHT22;9163;48.818;8.976;2022-11-24T01:32:48;6.50;99.90
15937;DHT22;9163;48.818;8.976;2022-11-24T01:35:15;6.60;99.90
15937;DHT22;9163;48.818;8.976;2022-11-24T01:37:42;6.60;99.90
15937;DHT22;9163;48.818;8.976;2022-11-24T01:40:10;6.50;99.90
15937;DHT22;9163;48.818;8.976;2022-11-24T01:42:45;6.60;99.90
15937;DHT22;9163;48.818;8.976;2022-11-24T01:45:35;6.60;99.90
15937;DHT22;9163;48.818;8.976;2022-11-24T01:48:10;6.60;99.90
15937;DHT22;9163;48.818;8.976;2022-11-24T01:50:39;6.60;99.90
15937;DHT22;9163;48.818;8.976;2022-11-24T01:53:07;6.60;99.90
15937;DHT22;9163;48.818;8.976;2022-11-24T01:55:37;6.50;99.90
15937;DHT22;9163;48.818;8.976;2022-11-24T01:58:09;6.40;99.90
15937;DHT22;9163;48.818;8.976;2022-11-24T02:00:40;6.40;99.90
15937;DHT22;9163;48.818;8.976;2022-11-24T02:03:10;6.40;99.90
15937;DHT22;9163;48.818;8.976;2022-11-24T02:05:41;6.50;99.90
15937;DHT22;9163;48.818;8.976;2022-11-24T02:08:16;6.50;99.90
15937;DHT22;9163;48.818;8.976;2022-11-24T02:10:45;6.50;99.90
15937;DHT22;9163;48.818;8.976;2022-11-24T02:13:14;6.40;99.90
15937;DHT22;9163;48.818;8.976;2022-11-24T02:15:43;6.40;99.90
15937;DHT22;9163;48.818;8.976;2022-11-24T02:18:10;6.40;99.90
15937;DHT22;9163;48.818;8.976;2022-11-24T02:20:37;6.40;99.90
15937;DHT22;9163;48.818;8.976;2022-11-24T02:23:10;6.40;99.90
15937;DHT22;9163;48.818;8.976;2022-11-24T02:25:46;6.40;99.90
15937;DHT22;9163;48.818;8.976;2022-11-24T02:28:19;6.40;99.90
15937;DHT22;9163;48.818;8.976;2022-11-24T02:30:47;6.40;99.90
15937;DHT22;9163;48.818;8.976;2022-11-24T02:33:16;6.50;99.90
15937;DHT22;9163;48.818;8.976;2022-11-24T02:35:43;6.50;99.90
15937;DHT22;9163;48.818;8.976;2022-11-24T02:38:12;6.40;99.90
15937;DHT22;9163;48.818;8.976;2022-11-24T02:40:41;6.40;99.90
15937;DHT22;9163;48.818;8.976;2022-11-24T02:43:12;6.40;99.90
15937;DHT22;9163;48.818;8.976;2022-11-24T02:45:42;6.40;99.90
15937;DHT22;9163;48.818;8.976;2022-11-24T02:48:10;6.30;99.90
15937;DHT22;9163;48.818;8.976;2022-11-24T02:50:37;6.30;99.90
15937;DHT22;9163;48.818;8.976;2022-11-24T02:53:04;6.30;99.90
15937;DHT22;9163;48.818;8.976;2022-11-24T02:55:32;6.20;99.90
15937;DHT22;9163;48.818;8.976;2022-11-24T02:57:59;6.20;99.90
15937;DHT22;9163;48.818;8.976;2022-11-24T03:00:26;6.10;99.90
15937;DHT22;9163;48.818;8.976;2022-11-24T03:02:55;6.00;99.90
15937;DHT22;9163;48.818;8.976;2022-11-24T03:05:22;6.00;99.90
15937;DHT22;9163;48.818;8.976;2022-11-24T03:07:49;6.00;99.90
15937;DHT22;9163;48.818;8.976;2022-11-24T03:10:17;6.00;99.90
15937;DHT22;9163;48.818;8.976;2022-11-24T03:12:44;5.80;99.90
15937;DHT22;9163;48.818;8.976;2022-11-24T03:15:11;5.90;99.90
15937;DHT22;9163;48.818;8.976;2022-11-24T03:17:39;5.70;99.90
15937;DHT22;9163;48.818;8.976;2022-11-24T03:20:09;5.60;99.90
15937;DHT22;9163;48.818;8.976;2022-11-24T03:22:36;5.60;99.90
15937;DHT22;9163;48.818;8.976;2022-11-24T03:25:04;5.50;99.90
15937;DHT22;9163;48.818;8.976;2022-11-24T03:27:32;5.40;99.90
15937;DHT22;9163;48.818;8.976;2022-11-24T03:29:59;5.30;99.90
15937;DHT22;9163;48.818;8.976;2022-11-24T03:32:26;5.30;99.90
15937;DHT22;9163;48.818;8.976;2022-11-24T03:34:54;5.20;99.90
15937;DHT22;9163;48.818;8.976;2022-11-24T03:37:22;5.10;99.90
15937;DHT22;9163;48.818;8.976;2022-11-24T03:39:50;5.00;99.90
15937;DHT22;9163;48.818;8.976;2022-11-24T03:42:17;5.00;99.90
15937;DHT22;9163;48.818;8.976;2022-11-24T03:44:44;5.00;99.90
15937;DHT22;9163;48.818;8.976;2022-11-24T03:47:12;4.90;99.90
15937;DHT22;9163;48.818;8.976;2022-11-24T03:49:39;4.90;99.90
15937;DHT22;9163;48.818;8.976;2022-11-24T03:52:07;4.90;99.90
15937;DHT22;9163;48.818;8.976;2022-11-24T03:54:36;4.80;99.90
15937;DHT22;9163;48.818;8.976;2022-11-24T03:57:04;4.80;99.90
15937;DHT22;9163;48.818;8.976;2022-11-24T03:59:31;4.90;99.90
15937;DHT22;9163;48.818;8.976;2022-11-24T04:01:58;4.90;99.90
15937;DHT22;9163;48.818;8.976;2022-11-24T04:04:25;4.90;99.90
15937;DHT22;9163;48.818;8.976;2022-11-24T04:06:53;4.90;99.90
15937;DHT22;9163;48.818;8.976;2022-11-24T04:09:20;4.90;99.90
15937;DHT22;9163;48.818;8.976;2022-11-24T04:11:49;4.90;99.90
15937;DHT22;9163;48.818;8.976;2022-11-24T04:14:34;4.90;99.90
15937;DHT22;9163;48.818;8.976;2022-11-24T04:17:02;4.90;99.90
15937;DHT22;9163;48.818;8.976;2022-11-24T04:19:30;4.90;99.90
15937;DHT22;9163;48.818;8.976;2022-11-24T04:21:57;5.00;99.90
15937;DHT22;9163;48.818;8.976;2022-11-24T04:24:24;5.00;99.90
15937;DHT22;9163;48.818;8.976;2022-11-24T04:26:53;5.00;99.90
15937;DHT22;9163;48.818;8.976;2022-11-24T04:29:20;5.00;99.90
15937;DHT22;9163;48.818;8.976;2022-11-24T04:31:48;5.00;99.90
15937;DHT22;9163;48.818;8.976;2022-11-24T04:34:15;5.10;99.90
15937;DHT22;9163;48.818;8.976;2022-11-24T04:36:42;5.20;99.90
15937;DHT22;9163;48.818;8.976;2022-11-24T04:39:09;5.10;99.90
15937;DHT22;9163;48.818;8.976;2022-11-24T04:41:37;5.20;99.90
15937;DHT22;9163;48.818;8.976;2022-11-24T04:44:05;5.20;99.90
15937;DHT22;9163;48.818;8.976;2022-11-24T04:46:33;5.30;99.90
15937;DHT22;9163;48.818;8.976;2022-11-24T04:49:00;5.30;99.90
15937;DHT22;9163;48.818;8.976;2022-11-24T04:51:27;5.40;99.90
15937;DHT22;9163;48.818;8.976;2022-11-24T04:53:55;5.50;99.90
15937;DHT22;9163;48.818;8.976;2022-11-24T04:56:22;5.50;99.90
15937;DHT22;9163;48.818;8.976;2022-11-24T04:58:50;5.60;99.90
15937;DHT22;9163;48.818;8.976;2022-11-24T05:01:18;5.60;99.90
15937;DHT22;9163;48.818;8.976;2022-11-24T05:03:46;5.60;99.90
15937;DHT22;9163;48.818;8.976;2022-11-24T05:06:13;5.60;99.90
15937;DHT22;9163;48.818;8.976;2022-11-24T05:08:40;5.50;99.90
15937;DHT22;9163;48.818;8.976;2022-11-24T05:11:08;5.50;99.90
15937;DHT22;9163;48.818;8.976;2022-11-24T05:13:35;5.50;99.90
15937;DHT22;9163;48.818;8.976;2022-11-24T05:16:03;5.50;99.90
15937;DHT22;9163;48.818;8.976;2022-11-24T05:18:32;5.50;99.90
15937;DHT22;9163;48.818;8.976;2022-11-24T05:20:59;5.50;99.90
15937;DHT22;9163;48.818;8.976;2022-11-24T05:23:26;5.50;99.90
15937;DHT22;9163;48.818;8.976;2022-11-24T05:25:58;5.40;99.90
15937;DHT22;9163;48.818;8.976;2022-11-24T05:28:26;5.40;99.90
15937;DHT22;9163;48.818;8.976;2022-11-24T05:30:53;5.50;99.90
15937;DHT22;9163;48.818;8.976;2022-11-24T05:33:24;5.50;99.90
15937;DHT22;9163;48.818;8.976;2022-11-24T05:35:58;5.50;99.90
15937;DHT22;9163;48.818;8.976;2022-11-24T05:38:26;5.50;99.90
15937;DHT22;9163;48.818;8.976;2022-11-24T05:40:54;5.40;99.90
15937;DHT22;9163;48.818;8.976;2022-11-24T05:43:25;5.40;99.90
15937;DHT22;9163;48.818;8.976;2022-11-24T05:45:52;5.30;99.90
15937;DHT22;9163;48.818;8.976;2022-11-24T05:48:20;5.30;99.90
15937;DHT22;9163;48.818;8.976;2022-11-24T05:50:53;5.30;99.90
15937;DHT22;9163;48.818;8.976;2022-11-24T05:53:21;5.30;99.90
15937;DHT22;9163;48.818;8.976;2022-11-24T05:55:49;5.30;99.90
15937;DHT22;9163;48.818;8.976;2022-11-24T05:58:16;5.30;99.90
15937;DHT22;9163;48.818;8.976;2022-11-24T06:00:43;5.40;99.90
15937;DHT22;9163;48.818;8.976;2022-11-24T06:03:11;5.30;99.90
15937;DHT22;9163;48.818;8.976;2022-11-24T06:05:38;5.40;99.90
15937;DHT22;9163;48.818;8.976;2022-11-24T06:08:07;5.60;99.90
15937;DHT22;9163;48.818;8.976;2022-11-24T06:10:35;5.70;99.90
15937;DHT22;9163;48.818;8.976;2022-11-24T06:13:04;5.70;99.90
15937;DHT22;9163;48.818;8.976;2022-11-24T06:15:32;5.80;99.90
15937;DHT22;9163;48.818;8.976;2022-11-24T06:17:59;5.80;99.90
15937;DHT22;9163;48.818;8.976;2022-11-24T06:20:29;5.80;99.90
15937;DHT22;9163;48.818;8.976;2022-11-24T06:22:58;5.70;99.90
15937;DHT22;9163;48.818;8.976;2022-11-24T06:25:27;5.70;99.90
15937;DHT22;9163;48.818;8.976;2022-11-24T06:27:55;5.80;99.90
15937;DHT22;9163;48.818;8.976;2022-11-24T06:30:22;5.80;99.90
15937;DHT22;9163;48.818;8.976;2022-11-24T06:32:53;5.90;99.90
15937;DHT22;9163;48.818;8.976;2022-11-24T06:35:21;6.00;99.90
15937;DHT22;9163;48.818;8.976;2022-11-24T06:37:48;6.10;99.90
15937;DHT22;9163;48.818;8.976;2022-11-24T06:40:16;6.20;99.90
15937;DHT22;9163;48.818;8.976;2022-11-24T06:42:50;6.30;99.90
15937;DHT22;9163;48.818;8.976;2022-11-24T06:45:17;6.40;99.90
15937;DHT22;9163;48.818;8.976;2022-11-24T06:47:45;6.40;99.90
15937;DHT22;9163;48.818;8.976;2022-11-24T06:50:12;6.40;99.90
15937;DHT22;9163;48.818;8.976;2022-11-24T06:52:39;6.40;99.90
15937;DHT22;9163;48.818;8.976;2022-11-24T06:55:07;6.40;99.90
15937;DHT22;9163;48.818;8.976;2022-11-24T06:57:34;6.40;99.90
15937;DHT22;9163;48.818;8.976;2022-11-24T07:00:06;6.40;99.90
15937;DHT22;9163;48.818;8.976;2022-11-24T07:02:33;6.40;99.90
15937;DHT22;9163;48.818;8.976;2022-11-24T07:05:01;6.30;99.90
15937;DHT22;9163;48.818;8.976;2022-11-24T07:07:28;6.30;99.90
15937;DHT22;9163;48.818;8.976;2022-11-24T07:09:55;6.30;99.90
15937;DHT22;9163;48.818;8.976;2022-11-24T07:12:23;6.20;99.90
15937;DHT22;9163;48.818;8.976;2022-11-24T07:14:50;6.20;99.90
15937;DHT22;9163;48.818;8.976;2022-11-24T07:17:19;6.20;99.90
15937;DHT22;9163;48.818;8.976;2022-11-24T07:19:46;6.20;99.90
15937;DHT22;9163;48.818;8.976;2022-11-24T07:22:20;6.20;99.90
15937;DHT22;9163;48.818;8.976;2022-11-24T07:24:57;6.20;99.90
15937;DHT22;9163;48.818;8.976;2022-11-24T07:27:26;6.10;99.90
15937;DHT22;9163;48.818;8.976;2022-11-24T07:29:53;6.10;99.90
15937;DHT22;9163;48.818;8.976;2022-11-24T07:32:22;6.10;99.90
15937;DHT22;9163;48.818;8.976;2022-11-24T07:34:49;6.10;99.90
15937;DHT22;9163;48.818;8.976;2022-11-24T07:37:17;6.10;99.90
15937;DHT22;9163;48.818;8.976;2022-11-24T07:39:44;6.10;99.90
15937;DHT22;9163;48.818;8.976;2022-11-24T07:42:11;6.10;99.90
15937;DHT22;9163;48.818;8.976;2022-11-24T07:44:38;6.10;99.90
15937;DHT22;9163;48.818;8.976;2022-11-24T07:47:06;6.10;99.90
15937;DHT22;9163;48.818;8.976;2022-11-24T07:49:35;6.10;99.90
15937;DHT22;9163;48.818;8.976;2022-11-24T07:52:02;6.10;99.90
15937;DHT22;9163;48.818;8.976;2022-11-24T07:54:30;6.10;99.90
15937;DHT22;9163;48.818;8.976;2022-11-24T07:56:58;6.10;99.90
15937;DHT22;9163;48.818;8.976;2022-11-24T07:59:25;6.20;99.90
15937;DHT22;9163;48.818;8.976;2022-11-24T08:01:52;6.20;99.90
15937;DHT22;9163;48.818;8.976;2022-11-24T08:04:20;6.10;99.90
15937;DHT22;9163;48.818;8.976;2022-11-24T08:06:48;6.20;99.90
15937;DHT22;9163;48.818;8.976;2022-11-24T08:09:16;6.20;99.90
15937;DHT22;9163;48.818;8.976;2022-11-24T08:11:43;6.20;99.90
15937;DHT22;9163;48.818;8.976;2022-11-24T08:14:10;6.20;99.90
15937;DHT22;9163;48.818;8.976;2022-11-24T08:16:38;6.10;99.90
15937;DHT22;9163;48.818;8.976;2022-11-24T08:19:05;6.10;99.90
15937;DHT22;9163;48.818;8.976;2022-11-24T08:21:32;6.10;99.90
15937;DHT22;9163;48.818;8.976;2022-11-24T08:24:01;6.10;99.90
15937;DHT22;9163;48.818;8.976;2022-11-24T08:26:28;6.20;99.90
15937;DHT22;9163;48.818;8.976;2022-11-24T08:28:57;6.20;99.90
15937;DHT22;9163;48.818;8.976;2022-11-24T08:31:26;6.20;99.90
15937;DHT22;9163;48.818;8.976;2022-11-24T08:33:57;6.20;99.90
15937;DHT22;9163;48.818;8.976;2022-11-24T08:36:25;6.20;99.90
15937;DHT22;9163;48.818;8.976;2022-11-24T08:38:54;6.20;99.90
15937;DHT22;9163;48.818;8.976;2022-11-24T08:41:24;6.10;99.90
15937;DHT22;9163;48.818;8.976;2022-11-24T08:43:52;6.10;99.90
15937;DHT22;9163;48.818;8.976;2022-11-24T08:46:19;6.10;99.90
15937;DHT22;9163;48.818;8.976;2022-11-24T08:48:47;6.10;99.90
15937;DHT22;9163;48.818;8.976;2022-11-24T08:51:17;6.10;99.90
15937;DHT22;9163;48.818;8.976;2022-11-24T08:53:44;6.20;99.90
15937;DHT22;9163;48.818;8.976;2022-11-24T08:56:12;6.30;99.90
15937;DHT22;9163;48.818;8.976;2022-11-24T08:58:41;6.30;99.90
15937;DHT22;9163;48.818;8.976;2022-11-24T09:01:11;6.30;99.90
15937;DHT22;9163;48.818;8.976;2022-11-24T09:03:38;6.30;99.90
15937;DHT22;9163;48.818;8.976;2022-11-24T09:06:06;6.40;99.90
15937;DHT22;9163;48.818;8.976;2022-11-24T09:08:35;6.50;99.90
15937;DHT22;9163;48.818;8.976;2022-11-24T09:11:05;6.50;99.90
15937;DHT22;9163;48.818;8.976;2022-11-24T09:13:33;6.40;99.90
15937;DHT22;9163;48.818;8.976;2022-11-24T09:16:03;6.50;99.90
15937;DHT22;9163;48.818;8.976;2022-11-24T09:18:31;6.40;99.90
15937;DHT22;9163;48.818;8.976;2022-11-24T09:21:05;6.40;99.90
15937;DHT22;9163;48.818;8.976;2022-11-24T09:23:33;6.40;99.90
15937;DHT22;9163;48.818;8.976;2022-11-24T09:26:04;6.30;99.90
15937;DHT22;9163;48.818;8.976;2022-11-24T09:28:32;6.30;99.90
15937;DHT22;9163;48.818;8.976;2022-11-24T09:31:00;6.30;99.90
15937;DHT22;9163;48.818;8.976;2022-11-24T09:33:29;6.30;99.90
15937;DHT22;9163;48.818;8.976;2022-11-24T09:35:57;6.30;99.90
15937;DHT22;9163;48.818;8.976;2022-11-24T09:38:25;6.30;99.90
15937;DHT22;9163;48.818;8.976;2022-11-24T09:40:53;6.30;99.90
15937;DHT22;9163;48.818;8.976;2022-11-24T09:43:25;6.50;99.90
15937;DHT22;9163;48.818;8.976;2022-11-24T09:46:02;6.70;99.90
15937;DHT22;9163;48.818;8.976;2022-11-24T09:48:36;6.70;99.90
15937;DHT22;9163;48.818;8.976;2022-11-24T09:51:10;6.70;99.90
15937;DHT22;9163;48.818;8.976;2022-11-24T09:53:41;6.70;99.90
15937;DHT22;9163;48.818;8.976;2022-11-24T09:56:15;6.70;99.90
15937;DHT22;9163;48.818;8.976;2022-11-24T09:58:47;6.80;99.90
15937;DHT22;9163;48.818;8.976;2022-11-24T10:01:17;6.90;99.90
15937;DHT22;9163;48.818;8.976;2022-11-24T10:03:48;7.20;99.90
15937;DHT22;9163;48.818;8.976;2022-11-24T10:06:22;7.40;99.90
15937;DHT22;9163;48.818;8.976;2022-11-24T10:09:12;7.50;99.90
15937;DHT22;9163;48.818;8.976;2022-11-24T10:11:45;7.40;99.90
15937;DHT22;9163;48.818;8.976;2022-11-24T10:14:31;7.40;99.90
15937;DHT22;9163;48.818;8.976;2022-11-24T10:17:12;7.20;99.90
15937;DHT22;9163;48.818;8.976;2022-11-24T10:19:47;7.10;99.90
15937;DHT22;9163;48.818;8.976;2022-11-24T10:22:26;7.10;99.90
15937;DHT22;9163;48.818;8.976;2022-11-24T10:25:19;7.10;99.90
15937;DHT22;9163;48.818;8.976;2022-11-24T10:27:49;7.20;99.90
15937;DHT22;9163;48.818;8.976;2022-11-24T10:30:20;7.30;99.90
15937;DHT22;9163;48.818;8.976;2022-11-24T10:32:51;7.40;99.90
15937;DHT22;9163;48.818;8.976;2022-11-24T10:35:26;7.40;99.90
15937;DHT22;9163;48.818;8.976;2022-11-24T10:38:00;7.40;99.90
15937;DHT22;9163;48.818;8.976;2022-11-24T10:40:36;7.60;99.90
15937;DHT22;9163;48.818;8.976;2022-11-24T10:43:06;7.80;99.90
15937;DHT22;9163;48.818;8.976;2022-11-24T10:45:35;7.80;99.90
15937;DHT22;9163;48.818;8.976;2022-11-24T10:48:07;7.80;99.90
15937;DHT22;9163;48.818;8.976;2022-11-24T10:50:40;7.60;99.90
15937;DHT22;9163;48.818;8.976;2022-11-24T10:53:15;7.50;99.90
15937;DHT22;9163;48.818;8.976;2022-11-24T10:56:00;7.50;99.90
15937;DHT22;9163;48.818;8.976;2022-11-24T10:58:30;7.40;99.90
15937;DHT22;9163;48.818;8.976;2022-11-24T11:00:59;7.70;99.90
15937;DHT22;9163;48.818;8.976;2022-11-24T11:03:30;9.30;99.90
15937;DHT22;9163;48.818;8.976;2022-11-24T11:06:06;11.60;99.90
15937;DHT22;9163;48.818;8.976;2022-11-24T11:08:35;13.70;99.90
15937;DHT22;9163;48.818;8.976;2022-11-24T11:11:15;13.30;99.90
15937;DHT22;9163;48.818;8.976;2022-11-24T11:13:49;13.00;99.90
15937;DHT22;9163;48.818;8.976;2022-11-24T11:16:32;13.40;99.90
15937;DHT22;9163;48.818;8.976;2022-11-24T11:19:01;14.50;99.90
15937;DHT22;9163;48.818;8.976;2022-11-24T11:21:35;14.30;99.90
15937;DHT22;9163;48.818;8.976;2022-11-24T11:24:05;14.00;99.90
15937;DHT22;9163;48.818;8.976;2022-11-24T11:26:39;14.30;99.90
15937;DHT22;9163;48.818;8.976;2022-11-24T11:29:15;14.80;99.90
15937;DHT22;9163;48.818;8.976;2022-11-24T11:32:02;14.60;99.90
15937;DHT22;9163;48.818;8.976;2022-11-24T11:34:34;14.40;99.90
15937;DHT22;9163;48.818;8.976;2022-11-24T11:37:03;15.00;99.90
15937;DHT22;9163;48.818;8.976;2022-11-24T11:39:33;14.90;99.90
15937;DHT22;9163;48.818;8.976;2022-11-24T11:42:13;16.00;99.90
15937;DHT22;9163;48.818;8.976;2022-11-24T11:44:44;16.80;99.90
15937;DHT22;9163;48.818;8.976;2022-11-24T11:47:22;17.30;99.90
15937;DHT22;9163;48.818;8.976;2022-11-24T11:49:51;17.40;99.90
15937;DHT22;9163;48.818;8.976;2022-11-24T11:53:01;18.30;99.90
15937;DHT22;9163;48.818;8.976;2022-11-24T11:55:45;19.30;99.90
15937;DHT22;9163;48.818;8.976;2022-11-24T12:01:21;18.50;99.90
15937;DHT22;9163;48.818;8.976;2022-11-24T12:03:58;18.80;99.90
15937;DHT22;9163;48.818;8.976;2022-11-24T12:06:40;19.20;99.90
15937;DHT22;9163;48.818;8.976;2022-11-24T12:09:19;16.60;99.90
15937;DHT22;9163;48.818;8.976;2022-11-24T12:11:58;14.70;99.90
15937;DHT22;9163;48.818;8.976;2022-11-24T12:14:35;13.70;99.90
15937;DHT22;9163;48.818;8.976;2022-11-24T12:17:13;14.50;99.90
15937;DHT22;9163;48.818;8.976;2022-11-24T12:22:45;12.70;99.90
15937;DHT22;9163;48.818;8.976;2022-11-24T12:25:22;12.10;99.90
15937;DHT22;9163;48.818;8.976;2022-11-24T12:27:57;12.30;99.90
15937;DHT22;9163;48.818;8.976;2022-11-24T12:30:30;12.80;99.90
15937;DHT22;9163;48.818;8.976;2022-11-24T12:33:15;12.70;99.90
15937;DHT22;9163;48.818;8.976;2022-11-24T12:35:51;13.70;99.90
15937;DHT22;9163;48.818;8.976;2022-11-24T12:38:33;14.90;99.90
15937;DHT22;9163;48.818;8.976;2022-11-24T12:41:29;14.40;99.90
15937;DHT22;9163;48.818;8.976;2022-11-24T12:44:01;13.00;99.90
15937;DHT22;9163;48.818;8.976;2022-11-24T12:46:36;13.10;99.90
15937;DHT22;9163;48.818;8.976;2022-11-24T12:49:16;14.00;99.90
15937;DHT22;9163;48.818;8.976;2022-11-24T12:51:53;14.50;99.90
15937;DHT22;9163;48.818;8.976;2022-11-24T12:54:25;15.30;99.90
15937;DHT22;9163;48.818;8.976;2022-11-24T12:57:05;16.00;99.90
15937;DHT22;9163;48.818;8.976;2022-11-24T12:59:38;17.40;99.90
15937;DHT22;9163;48.818;8.976;2022-11-24T13:02:17;17.80;99.90
15937;DHT22;9163;48.818;8.976;2022-11-24T13:04:53;18.60;99.90
15937;DHT22;9163;48.818;8.976;2022-11-24T13:07:37;19.00;99.90
15937;DHT22;9163;48.818;8.976;2022-11-24T13:10:28;18.10;99.90
15937;DHT22;9163;48.818;8.976;2022-11-24T13:12:58;19.60;99.90
15937;DHT22;9163;48.818;8.976;2022-11-24T13:15:27;19.60;99.90
15937;DHT22;9163;48.818;8.976;2022-11-24T13:17:55;18.80;99.90
15937;DHT22;9163;48.818;8.976;2022-11-24T13:20:24;17.50;99.90
15937;DHT22;9163;48.818;8.976;2022-11-24T13:22:53;16.20;99.90
15937;DHT22;9163;48.818;8.976;2022-11-24T13:25:23;14.60;99.90
15937;DHT22;9163;48.818;8.976;2022-11-24T13:27:52;13.50;99.90
15937;DHT22;9163;48.818;8.976;2022-11-24T13:31:05;13.40;99.90
15937;DHT22;9163;48.818;8.976;2022-11-24T13:33:37;12.40;99.90
15937;DHT22;9163;48.818;8.976;2022-11-24T13:39:19;11.50;99.90
15937;DHT22;9163;48.818;8.976;2022-11-24T13:42:07;11.70;99.90
15937;DHT22;9163;48.818;8.976;2022-11-24T13:44:51;12.40;99.90
15937;DHT22;9163;48.818;8.976;2022-11-24T13:47:33;13.40;99.90
15937;DHT22;9163;48.818;8.976;2022-11-24T13:50:02;14.60;99.90
15937;DHT22;9163;48.818;8.976;2022-11-24T13:52:44;14.10;99.90
15937;DHT22;9163;48.818;8.976;2022-11-24T13:55:31;14.40;99.90
15937;DHT22;9163;48.818;8.976;2022-11-24T13:58:26;15.50;99.90
15937;DHT22;9163;48.818;8.976;2022-11-24T14:01:10;16.60;99.90
15937;DHT22;9163;48.818;8.976;2022-11-24T14:03:45;17.90;99.90
15937;DHT22;9163;48.818;8.976;2022-11-24T14:06:22;17.80;99.90
15937;DHT22;9163;48.818;8.976;2022-11-24T14:08:51;17.90;99.90
15937;DHT22;9163;48.818;8.976;2022-11-24T14:11:19;17.20;99.90
15937;DHT22;9163;48.818;8.976;2022-11-24T14:13:47;17.90;99.90
15937;DHT22;9163;48.818;8.976;2022-11-24T14:16:15;17.60;99.90
15937;DHT22;9163;48.818;8.976;2022-11-24T14:18:45;17.20;99.90
15937;DHT22;9163;48.818;8.976;2022-11-24T14:21:24;17.60;99.90
15937;DHT22;9163;48.818;8.976;2022-11-24T14:23:54;17.60;99.90
15937;DHT22;9163;48.818;8.976;2022-11-24T14:26:30;18.50;99.90
15937;DHT22;9163;48.818;8.976;2022-11-24T14:29:03;18.60;99.90
15937;DHT22;9163;48.818;8.976;2022-11-24T14:31:31;17.90;99.90
15937;DHT22;9163;48.818;8.976;2022-11-24T14:34:15;17.70;99.90
15937;DHT22;9163;48.818;8.976;2022-11-24T14:36:43;17.50;99.90
15937;DHT22;9163;48.818;8.976;2022-11-24T14:39:12;17.00;99.90
15937;DHT22;9163;48.818;8.976;2022-11-24T14:41:41;17.00;99.90
15937;DHT22;9163;48.818;8.976;2022-11-24T14:44:15;16.80;99.90
15937;DHT22;9163;48.818;8.976;2022-11-24T14:46:44;16.00;99.90
15937;DHT22;9163;48.818;8.976;2022-11-24T14:49:18;14.90;99.90
15937;DHT22;9163;48.818;8.976;2022-11-24T14:51:51;14.40;99.90
15937;DHT22;9163;48.818;8.976;2022-11-24T14:54:20;15.00;99.90
15937;DHT22;9163;48.818;8.976;2022-11-24T14:56:57;14.50;99.90
15937;DHT22;9163;48.818;8.976;2022-11-24T14:59:27;14.70;99.90
15937;DHT22;9163;48.818;8.976;2022-11-24T15:01:56;14.70;99.90
15937;DHT22;9163;48.818;8.976;2022-11-24T15:04:26;14.30;99.90
15937;DHT22;9163;48.818;8.976;2022-11-24T15:09:51;14.50;99.90
15937;DHT22;9163;48.818;8.976;2022-11-24T15:12:24;14.10;99.90
15937;DHT22;9163;48.818;8.976;2022-11-24T15:14:55;13.90;99.90
15937;DHT22;9163;48.818;8.976;2022-11-24T15:17:26;14.00;99.90
15937;DHT22;9163;48.818;8.976;2022-11-24T15:19:57;13.80;99.90
15937;DHT22;9163;48.818;8.976;2022-11-24T15:22:30;13.20;99.90
15937;DHT22;9163;48.818;8.976;2022-11-24T15:24:59;12.00;99.90
15937;DHT22;9163;48.818;8.976;2022-11-24T15:27:26;11.20;99.90
15937;DHT22;9163;48.818;8.976;2022-11-24T15:29:54;10.40;99.90
15937;DHT22;9163;48.818;8.976;2022-11-24T15:32:21;9.80;99.90
15937;DHT22;9163;48.818;8.976;2022-11-24T15:34:48;9.40;99.90
15937;DHT22;9163;48.818;8.976;2022-11-24T15:37:17;9.10;99.90
15937;DHT22;9163;48.818;8.976;2022-11-24T15:39:44;8.90;99.90
15937;DHT22;9163;48.818;8.976;2022-11-24T15:42:12;8.60;99.90
15937;DHT22;9163;48.818;8.976;2022-11-24T15:44:39;8.30;99.90
15937;DHT22;9163;48.818;8.976;2022-11-24T15:47:07;8.10;99.90
15937;DHT22;9163;48.818;8.976;2022-11-24T15:49:35;7.90;99.90
15937;DHT22;9163;48.818;8.976;2022-11-24T15:52:02;7.90;99.90
15937;DHT22;9163;48.818;8.976;2022-11-24T15:54:33;7.80;99.90
15937;DHT22;9163;48.818;8.976;2022-11-24T15:57:01;7.70;99.90
15937;DHT22;9163;48.818;8.976;2022-11-24T15:59:28;7.70;99.90
15937;DHT22;9163;48.818;8.976;2022-11-24T16:01:56;7.60;99.90
15937;DHT22;9163;48.818;8.976;2022-11-24T16:04:23;7.50;99.90
15937;DHT22;9163;48.818;8.976;2022-11-24T16:06:50;7.40;99.90
15937;DHT22;9163;48.818;8.976;2022-11-24T16:09:17;7.30;99.90
15937;DHT22;9163;48.818;8.976;2022-11-24T16:11:46;7.10;99.90
15937;DHT22;9163;48.818;8.976;2022-11-24T16:14:13;7.10;99.90
15937;DHT22;9163;48.818;8.976;2022-11-24T16:16:41;6.90;99.90
15937;DHT22;9163;48.818;8.976;2022-11-24T16:19:08;6.70;99.90
15937;DHT22;9163;48.818;8.976;2022-11-24T16:21:35;6.70;99.90
15937;DHT22;9163;48.818;8.976;2022-11-24T16:24:03;6.60;99.90
15937;DHT22;9163;48.818;8.976;2022-11-24T16:26:30;6.60;99.90
15937;DHT22;9163;48.818;8.976;2022-11-24T16:28:59;6.50;99.90
15937;DHT22;9163;48.818;8.976;2022-11-24T16:31:26;6.40;99.90